createdAt,value
2023-02-17T00:00:39.820Z,54.32
2023-02-17T00:03:07.412Z,54.23
2023-02-17T00:05:40.130Z,54.02
2023-02-17T00:08:07.745Z,53.66
2023-02-17T00:10:35.394Z,54.26
2023-02-17T00:13:02.978Z,53.35
2023-02-17T00:15:30.582Z,53.56
2023-02-17T00:17:58.215Z,53.36
2023-02-17T00:20:25.924Z,54.14
2023-02-17T00:22:54.855Z,53.88
2023-02-17T00:25:22.487Z,53.79
2023-02-17T00:27:50.072Z,53.25
2023-02-17T00:30:18.208Z,53.62
2023-02-17T00:32:45.840Z,52.44
2023-02-17T00:35:13.708Z,52.52
2023-02-17T00:37:41.378Z,53.45
2023-02-17T00:40:11.155Z,53.76
2023-02-17T00:42:38.769Z,53.20
2023-02-17T00:45:07.125Z,52.77
2023-02-17T00:47:34.750Z,52.63
2023-02-17T00:50:02.475Z,52.42
2023-02-17T00:52:30.078Z,52.76
2023-02-17T00:54:57.617Z,52.56
2023-02-17T00:57:27.307Z,52.99
2023-02-17T00:59:54.869Z,53.00
2023-02-17T01:02:22.483Z,52.63
2023-02-17T01:04:50.189Z,53.46
2023-02-17T01:07:17.788Z,53.70
2023-02-17T01:09:45.368Z,53.18
2023-02-17T01:12:13.072Z,53.51
2023-02-17T01:14:42.103Z,53.00
2023-02-17T01:17:09.754Z,53.28
2023-02-17T01:19:37.386Z,53.64
2023-02-17T01:22:05.060Z,53.88
2023-02-17T01:24:32.834Z,54.70
2023-02-17T01:27:00.411Z,54.39
2023-02-17T01:29:28.010Z,54.44
2023-02-17T01:31:56.970Z,54.22
2023-02-17T01:34:24.619Z,54.13
2023-02-17T01:36:52.183Z,54.30
2023-02-17T01:39:19.947Z,53.46
2023-02-17T01:41:47.662Z,53.44
2023-02-17T01:44:17.545Z,53.53
2023-02-17T01:46:46.875Z,53.99
2023-02-17T01:49:25.349Z,54.27
2023-02-17T01:51:56.245Z,54.67
2023-02-17T01:54:27.640Z,53.79
2023-02-17T01:56:55.961Z,53.66
2023-02-17T01:59:23.907Z,52.98
2023-02-17T02:01:53.730Z,53.03
2023-02-17T02:04:26.268Z,52.96
2023-02-17T02:06:53.945Z,53.08
2023-02-17T02:09:23.746Z,53.33
2023-02-17T02:11:51.725Z,52.48
2023-02-17T02:14:19.791Z,52.64
2023-02-17T02:16:52.141Z,52.99
2023-02-17T02:19:37.856Z,53.51
2023-02-17T02:22:23.167Z,53.13
2023-02-17T02:25:00.809Z,52.75
2023-02-17T02:27:49.669Z,53.62
2023-02-17T02:30:28.335Z,54.35
2023-02-17T02:33:05.257Z,54.64
2023-02-17T02:35:39.039Z,54.48
2023-02-17T02:38:13.181Z,54.49
2023-02-17T02:40:44.642Z,54.08
2023-02-17T02:43:12.831Z,54.37
2023-02-17T02:45:40.457Z,54.00
2023-02-17T02:48:09.434Z,53.73
2023-02-17T02:50:55.186Z,53.69
2023-02-17T02:53:53.916Z,53.46
2023-02-17T02:56:32.845Z,53.62
2023-02-17T02:59:07.611Z,53.45
2023-02-17T03:01:39.048Z,53.90
2023-02-17T03:04:12.432Z,53.63
2023-02-17T03:06:44.093Z,53.14
2023-02-17T03:09:13.615Z,53.48
2023-02-17T03:11:42.500Z,53.66
2023-02-17T03:14:11.962Z,53.58
2023-02-17T03:16:40.714Z,53.92
2023-02-17T03:19:11.304Z,53.78
2023-02-17T03:21:41.241Z,53.71
2023-02-17T03:24:09.281Z,53.46
2023-02-17T03:26:36.877Z,53.41
2023-02-17T03:29:04.507Z,53.48
2023-02-17T03:31:32.518Z,52.77
2023-02-17T03:34:01.285Z,53.12
2023-02-17T03:36:30.904Z,53.94
2023-02-17T03:38:58.889Z,52.95
2023-02-17T03:41:26.959Z,53.53
2023-02-17T03:43:54.584Z,53.08
2023-02-17T03:46:22.464Z,53.61
2023-02-17T03:48:50.077Z,53.09
2023-02-17T03:51:19.870Z,52.36
2023-02-17T03:53:49.470Z,53.25
2023-02-17T03:56:18.008Z,54.10
2023-02-17T03:58:46.107Z,53.53
2023-02-17T04:01:14.390Z,53.99
2023-02-17T04:03:42.479Z,53.34
2023-02-17T04:06:11.543Z,54.14
2023-02-17T04:08:39.827Z,54.13
2023-02-17T04:11:10.775Z,52.20
2023-02-17T04:13:38.893Z,52.87
2023-02-17T04:16:08.908Z,53.39
2023-02-17T04:18:36.992Z,52.82
2023-02-17T04:21:05.556Z,53.13
2023-02-17T04:23:33.440Z,53.85
2023-02-17T04:26:01.045Z,52.90
2023-02-17T04:28:29.967Z,53.08
2023-02-17T04:30:59.016Z,53.05
2023-02-17T04:33:27.512Z,52.94
2023-02-17T04:35:59.402Z,53.80
2023-02-17T04:38:28.366Z,53.48
2023-02-17T04:40:56.469Z,53.54
2023-02-17T04:43:24.364Z,53.63
2023-02-17T04:45:53.362Z,52.61
2023-02-17T04:48:21.592Z,53.23
2023-02-17T04:50:49.391Z,54.16
2023-02-17T04:53:17.179Z,52.16
2023-02-17T04:55:44.833Z,53.28
2023-02-17T04:58:12.440Z,52.87
2023-02-17T05:00:40.012Z,52.74
2023-02-17T05:03:10.195Z,52.63
2023-02-17T05:05:37.847Z,52.66
2023-02-17T05:08:05.898Z,53.04
2023-02-17T05:10:33.451Z,52.66
2023-02-17T05:13:01.030Z,53.60
2023-02-17T05:15:28.704Z,53.52
2023-02-17T05:17:56.262Z,53.12
2023-02-17T05:20:25.317Z,53.52
2023-02-17T05:22:52.953Z,53.04
2023-02-17T05:25:20.603Z,53.44
2023-02-17T05:27:48.204Z,52.64
2023-02-17T05:30:16.115Z,52.73
2023-02-17T05:32:43.724Z,52.64
2023-02-17T05:35:11.366Z,52.60
2023-02-17T05:37:40.545Z,53.05
2023-02-17T05:40:09.365Z,52.65
2023-02-17T05:42:37.096Z,52.34
2023-02-17T05:45:04.959Z,52.75
2023-02-17T05:47:32.598Z,52.77
2023-02-17T05:50:00.229Z,52.85
2023-02-17T05:52:27.951Z,52.77
2023-02-17T05:54:56.924Z,52.91
2023-02-17T05:57:24.544Z,53.26
2023-02-17T05:59:52.145Z,52.45
2023-02-17T06:02:19.790Z,53.39
2023-02-17T06:04:47.478Z,53.26
2023-02-17T06:07:15.142Z,53.80
2023-02-17T06:09:42.773Z,54.52
2023-02-17T06:12:11.704Z,53.29
2023-02-17T06:14:39.390Z,54.06
2023-02-17T06:17:07.025Z,53.70
2023-02-17T06:19:34.755Z,54.32
2023-02-17T06:22:02.370Z,54.43
2023-02-17T06:24:30.063Z,54.79
2023-02-17T06:26:57.679Z,55.45
2023-02-17T06:29:27.664Z,54.73
2023-02-17T06:31:55.692Z,54.85
2023-02-17T06:34:23.642Z,55.43
2023-02-17T06:36:51.234Z,55.66
2023-02-17T06:39:18.857Z,56.23
2023-02-17T06:41:46.848Z,56.85
2023-02-17T06:44:14.492Z,56.42
2023-02-17T06:46:46.026Z,57.16
2023-02-17T06:49:13.772Z,57.88
2023-02-17T06:51:41.710Z,58.33
2023-02-17T06:54:09.528Z,58.17
2023-02-17T06:56:37.516Z,59.43
2023-02-17T06:59:05.476Z,58.85
2023-02-17T07:01:33.152Z,59.09
2023-02-17T07:04:02.118Z,59.76
2023-02-17T07:06:29.792Z,59.74
2023-02-17T07:08:57.452Z,59.66
2023-02-17T07:11:26.209Z,60.31
2023-02-17T07:13:53.756Z,59.70
2023-02-17T07:16:21.442Z,60.34
2023-02-17T07:18:49.099Z,59.97
2023-02-17T07:21:18.173Z,60.12
2023-02-17T07:23:46.273Z,60.04
2023-02-17T07:26:28.588Z,59.08
2023-02-17T07:28:56.058Z,59.79
2023-02-17T07:31:23.804Z,59.53
2023-02-17T07:33:51.434Z,59.31
2023-02-17T07:36:20.472Z,59.71
2023-02-17T07:38:48.289Z,59.07
2023-02-17T07:41:18.088Z,59.70
2023-02-17T07:43:46.449Z,59.70
2023-02-17T07:46:14.212Z,60.01
2023-02-17T07:48:42.247Z,59.43
2023-02-17T07:51:11.406Z,60.08
2023-02-17T07:53:40.650Z,60.58
2023-02-17T07:56:09.736Z,60.86
2023-02-17T07:58:38.912Z,60.53
2023-02-17T08:01:07.677Z,61.63
2023-02-17T08:03:35.413Z,61.59
2023-02-17T08:06:03.216Z,62.65
2023-02-17T08:08:48.289Z,62.59
2023-02-17T08:11:35.384Z,62.94
2023-02-17T08:14:03.247Z,64.22
2023-02-17T08:16:30.858Z,64.40
2023-02-17T08:18:58.802Z,63.34
2023-02-17T08:21:28.048Z,63.67
2023-02-17T08:23:55.976Z,64.39
2023-02-17T08:26:24.979Z,64.33
2023-02-17T08:28:52.610Z,65.06
2023-02-17T08:31:22.940Z,64.97
2023-02-17T08:33:51.084Z,64.59
2023-02-17T08:36:21.041Z,65.41
2023-02-17T08:38:50.422Z,64.98
2023-02-17T08:41:20.334Z,65.68
2023-02-17T08:43:49.862Z,65.00
2023-02-17T08:46:18.709Z,65.24
2023-02-17T08:48:46.701Z,64.73
2023-02-17T08:51:15.187Z,65.00
2023-02-17T08:53:43.232Z,64.89
2023-02-17T08:56:11.056Z,64.56
2023-02-17T08:58:38.669Z,64.94
2023-02-17T09:01:07.688Z,65.36
2023-02-17T09:03:35.435Z,65.46
2023-02-17T09:06:03.227Z,66.34
2023-02-17T09:08:31.120Z,65.40
2023-02-17T09:10:59.369Z,65.63
2023-02-17T09:13:27.355Z,65.60
2023-02-17T09:15:55.256Z,64.78
2023-02-17T09:18:24.473Z,65.36
2023-02-17T09:20:52.273Z,65.02
2023-02-17T09:23:20.201Z,67.52
2023-02-17T09:25:47.817Z,70.32
2023-02-17T09:28:15.431Z,71.54
2023-02-17T09:30:43.290Z,72.02
2023-02-17T09:33:10.987Z,72.17
2023-02-17T09:35:40.302Z,72.67
2023-02-17T09:38:10.282Z,71.31
2023-02-17T09:40:43.013Z,69.31
2023-02-17T09:43:14.802Z,69.35
2023-02-17T09:45:44.099Z,69.36
2023-02-17T09:48:13.041Z,70.18
2023-02-17T09:50:44.810Z,69.68
2023-02-17T09:53:19.210Z,70.45
2023-02-17T09:55:49.260Z,69.41
2023-02-17T09:58:20.563Z,69.22
2023-02-17T10:00:50.216Z,69.77
2023-02-17T10:03:20.683Z,69.68
2023-02-17T10:05:53.910Z,69.07
2023-02-17T10:08:23.933Z,68.55
2023-02-17T10:10:55.076Z,68.26
2023-02-17T10:13:23.935Z,66.99
2023-02-17T10:15:53.659Z,67.35
2023-02-17T10:18:26.431Z,65.99
2023-02-17T10:20:59.635Z,65.74
2023-02-17T10:23:29.783Z,64.59
2023-02-17T10:26:06.920Z,65.87
2023-02-17T10:28:52.352Z,64.29
2023-02-17T10:31:27.918Z,64.86
2023-02-17T10:33:59.402Z,64.25
2023-02-17T10:36:34.002Z,64.19
2023-02-17T10:39:04.786Z,63.18
2023-02-17T10:41:36.073Z,63.40
2023-02-17T10:44:08.101Z,63.39
2023-02-17T10:46:35.914Z,62.69
2023-02-17T10:49:06.239Z,62.12
2023-02-17T10:51:37.009Z,60.83
2023-02-17T10:54:08.566Z,61.70
2023-02-17T10:56:39.652Z,60.46
2023-02-17T10:59:08.888Z,60.97
2023-02-17T11:01:37.525Z,60.90
2023-02-17T11:04:06.752Z,59.96
2023-02-17T11:06:44.311Z,59.70
2023-02-17T11:09:20.100Z,59.17
2023-02-17T11:11:54.422Z,58.91
2023-02-17T11:14:25.417Z,57.68
2023-02-17T11:16:55.847Z,58.26
2023-02-17T11:19:25.583Z,58.65
2023-02-17T11:21:56.129Z,56.63
2023-02-17T11:24:24.244Z,56.96
2023-02-17T11:26:59.683Z,58.23
2023-02-17T11:29:27.566Z,57.69
2023-02-17T11:31:56.471Z,58.74
2023-02-17T11:34:26.691Z,57.62
2023-02-17T11:37:05.104Z,57.87
2023-02-17T11:39:39.127Z,58.96
2023-02-17T11:42:15.721Z,58.44
2023-02-17T11:44:43.530Z,59.43
2023-02-17T11:47:16.775Z,59.52
2023-02-17T11:49:56.231Z,59.45
2023-02-17T11:52:44.716Z,58.80
2023-02-17T11:55:24.688Z,59.76
2023-02-17T11:58:01.748Z,59.53
2023-02-17T12:00:34.177Z,59.70
2023-02-17T12:03:22.465Z,59.70
2023-02-17T12:06:00.177Z,60.10
2023-02-17T12:08:38.282Z,59.58
2023-02-17T12:11:12.920Z,59.95
2023-02-17T12:13:47.993Z,60.79
2023-02-17T12:16:29.002Z,61.56
2023-02-17T12:19:03.429Z,61.15
2023-02-17T12:21:43.583Z,61.65
2023-02-17T12:24:29.628Z,61.54
2023-02-17T12:27:04.278Z,61.79
2023-02-17T12:29:43.673Z,61.72
2023-02-17T12:32:21.695Z,62.06
2023-02-17T12:34:52.980Z,62.52
2023-02-17T12:37:23.355Z,61.95
2023-02-17T12:39:54.695Z,61.63
2023-02-17T12:42:24.918Z,62.32
2023-02-17T12:44:54.959Z,61.69
2023-02-17T12:47:27.074Z,62.56
2023-02-17T12:49:58.797Z,63.45
2023-02-17T12:52:28.478Z,63.46
2023-02-17T12:55:00.356Z,63.98
2023-02-17T12:57:34.408Z,66.15
2023-02-17T13:00:02.620Z,66.06
2023-02-17T13:02:30.784Z,66.22
2023-02-17T13:05:01.513Z,66.77
2023-02-17T13:07:40.689Z,66.34
2023-02-17T13:10:20.876Z,66.48
2023-02-17T13:12:57.681Z,66.99
2023-02-17T13:15:28.958Z,67.02
2023-02-17T13:18:01.260Z,66.65
2023-02-17T13:20:41.983Z,67.25
2023-02-17T13:23:13.695Z,67.82
2023-02-17T13:25:42.697Z,68.21
2023-02-17T13:28:35.166Z,67.94
2023-02-17T13:31:15.224Z,66.69
2023-02-17T13:33:45.986Z,66.64
2023-02-17T13:36:16.683Z,66.74
2023-02-17T13:38:56.466Z,66.49
2023-02-17T13:41:25.465Z,66.48
2023-02-17T13:43:53.332Z,66.45
2023-02-17T13:46:24.366Z,65.76
2023-02-17T13:49:04.032Z,65.57
2023-02-17T13:51:33.672Z,65.75
2023-02-17T13:54:09.003Z,65.36
2023-02-17T13:56:37.994Z,65.86
2023-02-17T13:59:10.731Z,66.82
2023-02-17T14:01:39.627Z,66.57
2023-02-17T14:04:19.146Z,66.29
2023-02-17T14:06:48.724Z,66.94
2023-02-17T14:09:22.034Z,66.74
2023-02-17T14:11:51.241Z,67.05
2023-02-17T14:14:19.052Z,67.18
2023-02-17T14:16:47.033Z,66.69
2023-02-17T14:19:16.299Z,66.88
2023-02-17T14:21:45.841Z,66.81
2023-02-17T14:24:27.120Z,66.52
2023-02-17T14:26:59.873Z,65.81
2023-02-17T14:29:27.881Z,67.05
2023-02-17T14:31:55.664Z,66.27
2023-02-17T14:34:28.078Z,66.12
2023-02-17T14:37:11.601Z,66.60
2023-02-17T14:39:39.231Z,66.23
2023-02-17T14:42:08.400Z,66.82
2023-02-17T14:44:36.049Z,66.56
2023-02-17T14:47:03.683Z,66.26
2023-02-17T14:49:31.349Z,67.15
2023-02-17T14:51:59.143Z,66.74
2023-02-17T14:54:28.761Z,67.29
2023-02-17T14:57:03.679Z,68.13
2023-02-17T14:59:32.973Z,67.62
2023-02-17T15:02:01.349Z,67.62
2023-02-17T15:04:29.203Z,67.89
2023-02-17T15:06:56.875Z,67.38
2023-02-17T15:09:29.278Z,68.57
2023-02-17T15:11:57.161Z,68.55
2023-02-17T15:14:25.186Z,67.95
2023-02-17T15:16:54.257Z,68.18
2023-02-17T15:19:21.953Z,68.03
2023-02-17T15:21:50.810Z,68.58
2023-02-17T15:24:20.164Z,68.78
2023-02-17T15:26:48.157Z,68.73
2023-02-17T15:29:17.398Z,68.42
2023-02-17T15:31:45.776Z,69.04
2023-02-17T15:34:17.104Z,69.27
2023-02-17T15:36:44.923Z,69.99
2023-02-17T15:39:13.018Z,70.00
2023-02-17T15:41:41.144Z,70.37
2023-02-17T15:44:14.521Z,71.40
2023-02-17T15:46:42.255Z,72.00
2023-02-17T15:49:11.062Z,72.38
2023-02-17T15:51:40.234Z,72.49
2023-02-17T15:54:07.844Z,72.80
2023-02-17T15:56:39.844Z,73.81
2023-02-17T15:59:11.102Z,73.12
2023-02-17T16:01:38.830Z,74.44
2023-02-17T16:04:07.601Z,74.18
2023-02-17T16:06:35.190Z,74.44
2023-02-17T16:09:04.228Z,73.98
2023-02-17T16:11:32.053Z,75.04
2023-02-17T16:14:00.110Z,75.50
2023-02-17T16:16:32.289Z,75.22
2023-02-17T16:18:59.766Z,76.24
2023-02-17T16:21:27.464Z,75.00
2023-02-17T16:23:59.805Z,76.42
2023-02-17T16:26:32.861Z,77.09
2023-02-17T16:29:01.797Z,78.19
2023-02-17T16:31:32.281Z,79.42
2023-02-17T16:34:00.428Z,78.92
2023-02-17T16:36:32.324Z,79.91
2023-02-17T16:39:01.966Z,79.07
2023-02-17T16:41:30.905Z,79.76
2023-02-17T16:43:58.535Z,79.63
2023-02-17T16:46:30.424Z,79.62
2023-02-17T16:48:58.097Z,80.35
2023-02-17T16:51:25.821Z,80.28
2023-02-17T16:53:53.795Z,80.26
2023-02-17T16:56:24.146Z,80.18
2023-02-17T16:58:53.098Z,80.38
2023-02-17T17:01:22.066Z,79.28
2023-02-17T17:03:50.594Z,78.84
2023-02-17T17:06:20.668Z,80.05
2023-02-17T17:08:48.733Z,79.36
2023-02-17T17:11:18.091Z,79.70
2023-02-17T17:13:46.601Z,79.54
2023-02-17T17:16:17.615Z,79.64
2023-02-17T17:18:45.264Z,80.16
2023-02-17T17:21:13.930Z,80.04
2023-02-17T17:23:41.895Z,80.42
2023-02-17T17:26:18.510Z,79.95
2023-02-17T17:28:48.084Z,79.92
2023-02-17T17:31:17.302Z,80.03
2023-02-17T17:33:46.039Z,80.36
2023-02-17T17:36:18.340Z,80.25
2023-02-17T17:38:46.021Z,81.00
2023-02-17T17:41:14.712Z,80.28
2023-02-17T17:43:45.099Z,80.01
2023-02-17T17:46:14.438Z,80.03
2023-02-17T17:48:43.936Z,80.01
2023-02-17T17:51:13.691Z,79.69
2023-02-17T17:53:41.910Z,80.43
2023-02-17T17:56:14.144Z,81.52
2023-02-17T17:58:41.817Z,80.36
2023-02-17T18:01:09.540Z,81.76
2023-02-17T18:03:37.214Z,81.05
2023-02-17T18:06:07.547Z,80.91
2023-02-17T18:08:36.166Z,81.53
2023-02-17T18:11:03.987Z,80.82
2023-02-17T18:13:31.729Z,80.68
2023-02-17T18:15:59.479Z,81.11
2023-02-17T18:18:28.544Z,81.07
2023-02-17T18:20:56.125Z,81.89
2023-02-17T18:23:25.048Z,80.80
2023-02-17T18:25:52.671Z,80.25
2023-02-17T18:28:20.277Z,79.64
2023-02-17T18:30:48.018Z,81.28
2023-02-17T18:33:15.839Z,80.47
2023-02-17T18:35:45.489Z,80.56
2023-02-17T18:38:13.475Z,81.07
2023-02-17T18:40:42.670Z,81.14
2023-02-17T18:43:10.464Z,80.75
2023-02-17T18:45:38.398Z,81.75
2023-02-17T18:48:06.312Z,81.26
2023-02-17T18:50:34.942Z,82.34
2023-02-17T18:53:05.090Z,83.02
2023-02-17T18:55:33.007Z,82.16
2023-02-17T18:58:01.947Z,82.09
2023-02-17T19:00:29.963Z,81.77
2023-02-17T19:02:57.616Z,81.40
2023-02-17T19:05:28.318Z,82.71
2023-02-17T19:07:56.115Z,82.65
2023-02-17T19:10:23.714Z,81.91
2023-02-17T19:12:51.334Z,83.34
2023-02-17T19:15:20.973Z,82.94
2023-02-17T19:17:51.233Z,83.29
2023-02-17T19:20:18.970Z,84.21
2023-02-17T19:22:46.577Z,84.05
2023-02-17T19:25:14.179Z,83.67
2023-02-17T19:27:41.868Z,83.65
2023-02-17T19:30:10.695Z,84.34
2023-02-17T19:32:39.679Z,84.39
2023-02-17T19:35:10.017Z,84.18
2023-02-17T19:37:39.042Z,85.33
2023-02-17T19:40:08.124Z,84.75
2023-02-17T19:42:35.737Z,84.95
2023-02-17T19:45:03.370Z,84.95
2023-02-17T19:47:31.636Z,85.96
2023-02-17T19:50:00.565Z,85.72
2023-02-17T19:52:28.778Z,86.41
2023-02-17T19:54:56.603Z,86.09
2023-02-17T19:57:24.172Z,86.04
2023-02-17T19:59:51.741Z,85.81
2023-02-17T20:02:19.335Z,85.99
2023-02-17T20:04:46.920Z,86.33
2023-02-17T20:07:15.883Z,85.71
2023-02-17T20:09:43.497Z,86.17
2023-02-17T20:12:11.108Z,85.94
2023-02-17T20:14:38.780Z,86.43
2023-02-17T20:17:06.420Z,85.31
2023-02-17T20:19:37.697Z,86.71
2023-02-17T20:22:05.498Z,86.10
2023-02-17T20:24:34.573Z,85.39
2023-02-17T20:27:02.353Z,85.91
2023-02-17T20:29:30.158Z,85.95
2023-02-17T20:31:57.842Z,85.93
2023-02-17T20:34:29.126Z,84.92
2023-02-17T20:36:56.837Z,85.48
2023-02-17T20:39:25.804Z,85.69
2023-02-17T20:41:55.457Z,84.69
2023-02-17T20:44:27.455Z,86.12
2023-02-17T20:46:55.893Z,85.82
2023-02-17T20:49:23.813Z,85.74
2023-02-17T20:51:51.387Z,85.89
2023-02-17T20:54:19.027Z,86.23
2023-02-17T20:56:47.899Z,86.83
2023-02-17T20:59:16.867Z,86.36
2023-02-17T21:01:44.754Z,86.66
2023-02-17T21:04:14.085Z,86.03
2023-02-17T21:06:43.200Z,87.38
2023-02-17T21:09:14.601Z,87.19
2023-02-17T21:11:42.714Z,86.89
2023-02-17T21:14:10.444Z,86.53
2023-02-17T21:16:39.709Z,87.30
2023-02-17T21:19:07.651Z,85.77
2023-02-17T21:21:35.735Z,85.99
2023-02-17T21:24:03.311Z,86.94
2023-02-17T21:26:30.909Z,85.73
2023-02-17T21:28:58.513Z,85.31
2023-02-17T21:31:27.037Z,85.69
2023-02-17T21:33:56.174Z,84.51
2023-02-17T21:36:23.794Z,85.13
2023-02-17T21:38:51.526Z,84.99
2023-02-17T21:41:20.956Z,84.39
2023-02-17T21:44:06.333Z,83.90
2023-02-17T21:46:34.654Z,84.28
2023-02-17T21:49:03.651Z,85.30
2023-02-17T21:51:31.661Z,84.92
2023-02-17T21:53:59.520Z,85.01
2023-02-17T21:56:27.126Z,84.44
2023-02-17T21:58:56.194Z,85.61
2023-02-17T22:01:25.356Z,85.84
2023-02-17T22:03:53.173Z,84.38
2023-02-17T22:06:24.253Z,84.26
2023-02-17T22:08:52.258Z,84.45
2023-02-17T22:11:21.520Z,85.78
2023-02-17T22:13:49.155Z,85.59
2023-02-17T22:16:16.957Z,85.80
2023-02-17T22:18:44.610Z,85.35
2023-02-17T22:21:13.912Z,85.67
2023-02-17T22:23:43.578Z,85.26
2023-02-17T22:26:13.011Z,85.24
2023-02-17T22:28:41.035Z,84.79
2023-02-17T22:31:08.741Z,84.84
2023-02-17T22:33:36.383Z,85.33
2023-02-17T22:36:07.284Z,85.50
2023-02-17T22:38:35.417Z,86.49
2023-02-17T22:41:07.752Z,85.67
2023-02-17T22:43:35.860Z,85.93
2023-02-17T22:46:04.009Z,85.78
2023-02-17T22:48:32.671Z,86.30
2023-02-17T22:51:00.479Z,86.16
2023-02-17T22:53:28.043Z,86.99
2023-02-17T22:55:56.978Z,87.09
2023-02-17T22:58:26.786Z,86.10
2023-02-17T23:01:03.663Z,86.29
2023-02-17T23:03:31.498Z,86.79
2023-02-17T23:06:00.750Z,86.92
2023-02-17T23:08:28.621Z,87.22
2023-02-17T23:10:56.240Z,87.68
2023-02-17T23:13:24.018Z,86.34
2023-02-17T23:15:53.131Z,88.22
2023-02-17T23:18:20.911Z,88.84
2023-02-17T23:20:50.102Z,89.74
2023-02-17T23:23:17.716Z,89.22
2023-02-17T23:25:49.738Z,90.22
2023-02-17T23:28:17.399Z,89.42
2023-02-17T23:30:46.798Z,89.59
2023-02-17T23:33:16.267Z,90.78
2023-02-17T23:35:45.054Z,90.59
2023-02-17T23:38:12.968Z,90.78
2023-02-17T23:40:41.358Z,90.73
2023-02-17T23:43:09.614Z,90.34
2023-02-17T23:45:39.157Z,90.51
2023-02-17T23:48:07.218Z,91.18
2023-02-17T23:50:36.171Z,91.22
2023-02-17T23:53:03.775Z,91.32
2023-02-17T23:55:31.342Z,91.84
2023-02-17T23:57:59.944Z,91.25
